Time;durP1;ratioP1;P1;durP2;ratioP2;P2;SDS_P1;SDS_P2;PMS_P1;PMS_P2;Temp;Humidity;BMP_temperature;BMP_pressure;BME280_temperature;BME280_humidity;BME280_pressure;Samples;Min_cycle;Max_cycle;Signal;HPM_P1;HPM_P2
2023/03/21 00:00:22;;;;;;;18.90;7.10;;;;;;;11.02;98.60;100752.66;8286007;28;20034;-60
2023/03/21 00:04:35;;;;;;;13.40;7.60;;;;;;;10.98;98.31;100739.56;8405160;27;20466;-59
2023/03/21 00:08:36;;;;;;;11.40;7.25;;;;;;;10.99;97.55;100742.13;8403570;27;20044;-61
2023/03/21 00:12:36;;;;;;;22.50;8.60;;;;;;;11.03;96.77;100730.00;8402043;27;20041;-59
2023/03/21 00:16:37;;;;;;;12.30;7.57;;;;;;;11.04;96.30;100720.88;8407433;27;20090;-59
2023/03/21 00:20:38;;;;;;;19.35;9.55;;;;;;;11.01;95.87;100715.75;8402923;27;20036;-59
2023/03/21 00:24:38;;;;;;;19.92;8.30;;;;;;;11.10;96.56;100720.34;8403408;27;20111;-54
2023/03/21 00:28:41;;;;;;;17.73;7.82;;;;;;;11.02;96.11;100714.78;8402905;27;20121;-59
2023/03/21 00:32:41;;;;;;;15.07;7.28;;;;;;;11.06;96.56;100718.91;8403074;27;20044;-59
2023/03/21 00:36:42;;;;;;;14.45;7.55;;;;;;;10.96;96.45;100715.34;8403097;27;20067;-59
2023/03/21 00:40:43;;;;;;;16.42;7.97;;;;;;;10.99;97.22;100715.06;8402142;27;20054;-62
2023/03/21 00:44:43;;;;;;;17.05;8.20;;;;;;;11.02;95.57;100709.38;8398284;27;20043;-59
2023/03/21 00:48:44;;;;;;;18.67;7.63;;;;;;;11.05;94.06;100697.41;8377832;27;20043;-53
2023/03/21 00:52:45;;;;;;;15.13;7.15;;;;;;;11.13;93.02;100698.41;8384849;27;20033;-53
2023/03/21 00:56:46;;;;;;;16.02;7.90;;;;;;;11.11;93.01;100689.59;8405216;27;20119;-53
2023/03/21 01:00:46;;;;;;;18.30;7.30;;;;;;;11.12;92.53;100685.88;8393391;27;20032;-52
2023/03/21 01:04:48;;;;;;;15.23;8.00;;;;;;;11.10;93.42;100695.97;8384446;28;20043;-53
2023/03/21 01:08:49;;;;;;;18.15;7.47;;;;;;;11.11;93.01;100694.16;8384147;28;20045;-53
2023/03/21 01:12:49;;;;;;;16.13;8.35;;;;;;;11.07;93.55;100698.97;8378658;28;20064;-53
2023/03/21 01:16:51;;;;;;;16.73;8.07;;;;;;;11.01;93.82;100683.28;8354842;28;20131;-53
2023/03/21 01:20:55;;;;;;;18.80;8.75;;;;;;;11.06;94.80;100686.44;8349830;28;20032;-53
2023/03/21 01:24:55;;;;;;;16.65;8.15;;;;;;;11.08;94.07;100683.59;8379466;28;20036;-53
2023/03/21 01:28:56;;;;;;;17.50;7.80;;;;;;;11.09;94.12;100682.59;8369700;28;20044;-53
2023/03/21 01:32:57;;;;;;;18.17;8.38;;;;;;;11.11;93.79;100673.38;8349083;28;20135;-53
2023/03/21 01:36:57;;;;;;;18.48;8.38;;;;;;;11.13;93.79;100671.34;8345745;28;20512;-53
2023/03/21 01:41:01;;;;;;;18.35;8.25;;;;;;;11.13;95.05;100667.81;8345558;28;20496;-53
2023/03/21 01:45:47;;;;;;;17.95;8.32;;;;;;;11.10;94.11;100668.09;8341931;28;20073;-59
2023/03/21 01:49:55;;;;;;;18.70;8.48;;;;;;;10.99;95.74;100655.53;8341100;28;20046;-60
2023/03/21 01:54:00;;;;;;;20.60;9.10;;;;;;;10.97;95.55;100644.00;8373669;28;20029;-60
2023/03/21 01:58:04;;;;;;;;;;;;;;;11.04;94.08;100645.13;8376022;28;20449;-61
2023/03/21 02:02:14;;;;;;;20.40;8.73;;;;;;;11.10;93.10;100628.34;8367964;28;19916;-59
2023/03/21 02:06:43;;;;;;;25.63;9.27;;;;;;;11.11;93.06;100624.66;8359898;28;20048;-60
2023/03/21 02:10:54;;;;;;;16.52;8.20;;;;;;;11.25;91.67;100628.78;8392658;28;20586;-57
2023/03/21 02:15:07;;;;;;;18.65;8.55;;;;;;;11.36;91.23;100624.09;8394445;28;20043;-57
2023/03/21 02:20:08;;;;;;;18.73;8.65;;;;;;;11.32;91.01;100619.94;8357391;28;20151;-58
2023/03/21 02:29:05;;;;;;;23.67;9.07;;;;;;;11.10;94.94;100606.69;8410273;27;20974;-58
2023/03/21 02:37:45;;;;;;;28.15;9.65;;;;;;;11.00;96.63;100605.84;8428316;27;20906;-59
2023/03/21 02:41:53;;;;;;;22.35;9.23;;;;;;;11.03;96.45;100605.56;8419842;28;20032;-58
2023/03/21 02:46:14;;;;;;;19.77;9.30;;;;;;;11.05;95.79;100602.72;8419830;28;20409;-58
2023/03/21 02:50:30;;;;;;;14.80;8.18;;;;;;;11.08;94.84;100603.31;8419746;28;20036;-57
2023/03/21 02:54:33;;;;;;;21.05;9.63;;;;;;;11.17;94.62;100591.63;8419621;28;20040;-58
2023/03/21 02:58:34;;;;;;;25.38;9.40;;;;;;;11.16;94.72;100595.31;8419778;28;20040;-59
2023/03/21 03:02:36;;;;;;;18.40;9.13;;;;;;;11.09;95.35;100588.78;8419860;28;20036;-60
2023/03/21 03:06:55;;;;;;;22.27;9.32;;;;;;;11.11;95.27;100592.19;8418265;28;20059;-60
2023/03/21 03:11:27;;;;;;;24.42;9.55;;;;;;;11.04;96.90;100580.22;8397306;28;20044;-60
2023/03/21 03:15:44;;;;;;;22.48;9.80;;;;;;;10.96;98.02;100571.97;8387632;28;20040;-60
2023/03/21 03:19:59;;;;;;;22.67;10.48;;;;;;;10.96;98.80;100571.09;8418264;28;20343;-59
2023/03/21 03:24:12;;;;;;;28.40;10.18;;;;;;;10.94;98.68;100563.13;8418861;28;20580;-59
2023/03/21 03:28:15;;;;;;;25.85;10.77;;;;;;;10.89;99.73;100568.09;8392185;28;20120;-59
2023/03/21 03:32:22;;;;;;;21.30;9.70;;;;;;;10.83;100.00;100554.31;8385924;28;20041;-59
2023/03/21 03:36:29;;;;;;;24.92;9.57;;;;;;;10.83;100.00;100557.84;8384112;28;20459;-59
2023/03/21 03:40:39;;;;;;;26.25;9.80;;;;;;;10.92;99.74;100562.41;8384395;28;20045;-59
2023/03/21 03:44:47;;;;;;;23.35;8.80;;;;;;;10.95;99.07;100554.00;8385439;28;20090;-55
2023/03/21 03:48:54;;;;;;;19.75;9.38;;;;;;;10.95;99.66;100547.75;8394596;28;20570;-61
2023/03/21 03:53:02;;;;;;;19.90;9.98;;;;;;;10.84;100.00;100548.75;8395202;28;20040;-60
2023/03/21 03:57:05;;;;;;;23.77;9.50;;;;;;;10.75;100.00;100546.91;8393439;28;20080;-55
2023/03/21 04:01:07;;;;;;;22.95;9.10;;;;;;;10.77;100.00;100550.28;8388534;28;20499;-59
2023/03/21 04:05:08;;;;;;;21.95;9.07;;;;;;;10.81;100.00;100553.59;8394639;28;20041;-53
2023/03/21 04:09:09;;;;;;;20.75;9.35;;;;;;;10.86;100.00;100554.84;8360344;28;20048;-56
2023/03/21 04:13:10;;;;;;;20.60;8.35;;;;;;;10.92;100.00;100554.28;8360314;28;20094;-54
2023/03/21 04:17:18;;;;;;;17.98;8.52;;;;;;;10.88;99.96;100544.75;8391076;28;20051;-54
2023/03/21 04:21:20;;;;;;;20.55;8.15;;;;;;;10.86;100.00;100537.81;8393325;28;20533;-54
2023/03/21 04:25:21;;;;;;;20.67;8.50;;;;;;;10.90;99.55;100544.63;8394669;28;20572;-53
2023/03/21 04:29:21;;;;;;;16.25;8.15;;;;;;;10.93;99.11;100545.22;8394545;28;20380;-54
2023/03/21 04:33:43;;;;;;;19.63;7.43;;;;;;;10.92;99.10;100537.22;8388574;28;20033;-54
2023/03/21 04:37:44;;;;;;;19.70;7.88;;;;;;;10.90;98.83;100540.06;8372576;28;20112;-54
2023/03/21 04:41:48;;;;;;;19.23;8.02;;;;;;;10.90;99.73;100534.66;8360389;28;20047;-55
2023/03/21 04:45:50;;;;;;;19.98;8.52;;;;;;;10.90;99.92;100534.66;8366699;28;20173;-54
2023/03/21 04:49:52;;;;;;;18.77;8.23;;;;;;;10.92;100.00;100534.53;8380235;28;20036;-54
2023/03/21 04:53:56;;;;;;;21.30;8.10;;;;;;;10.90;99.90;100533.81;8389920;28;20032;-55
2023/03/21 04:57:57;;;;;;;18.30;8.02;;;;;;;10.98;99.62;100528.53;8392735;28;20287;-54
2023/03/21 05:01:58;;;;;;;18.73;7.97;;;;;;;10.98;99.10;100532.09;8379619;28;20044;-54
2023/03/21 05:06:00;;;;;;;16.65;7.28;;;;;;;11.01;99.19;100530.97;8382777;28;20123;-55
2023/03/21 05:10:00;;;;;;;20.05;7.97;;;;;;;10.97;99.16;100522.28;8377443;28;20609;-54
2023/03/21 05:14:01;;;;;;;16.98;8.05;;;;;;;10.86;100.00;100526.97;8386854;28;20411;-54
2023/03/21 05:18:10;;;;;;;22.52;8.02;;;;;;;10.85;100.00;100526.13;8387399;28;20633;-55
2023/03/21 05:22:13;;;;;;;16.73;8.25;;;;;;;10.84;100.00;100531.66;8382647;28;20041;-55
2023/03/21 05:26:13;;;;;;;18.48;7.93;;;;;;;10.81;100.00;100531.94;8388709;28;20035;-54
2023/03/21 05:30:27;;;;;;;20.27;8.10;;;;;;;10.76;100.00;100532.38;8387980;28;20048;-55
2023/03/21 05:34:31;;;;;;;21.50;9.05;;;;;;;10.74;100.00;100534.34;8383529;28;20401;-54
2023/03/21 05:38:33;;;;;;;21.58;8.10;;;;;;;10.72;100.00;100538.19;8381512;28;20105;-54
2023/03/21 05:42:34;;;;;;;18.38;7.28;;;;;;;10.71;100.00;100529.25;8388874;28;20048;-55
2023/03/21 05:46:45;;;;;;;19.90;7.90;;;;;;;10.64;100.00;100522.69;8387321;28;20036;-55
2023/03/21 05:50:46;;;;;;;21.92;8.43;;;;;;;10.67;100.00;100522.41;8386486;28;20036;-55
2023/03/21 05:54:52;;;;;;;17.45;8.20;;;;;;;10.64;100.00;100533.50;8377761;28;20485;-54
2023/03/21 05:58:56;;;;;;;19.17;8.60;;;;;;;10.66;100.00;100533.34;8385804;28;20525;-55
2023/03/21 06:02:57;;;;;;;19.40;8.68;;;;;;;10.68;100.00;100534.09;8385586;28;20064;-55
2023/03/21 06:07:18;;;;;;;19.80;8.93;;;;;;;10.70;100.00;100532.94;8381857;28;20507;-55
2023/03/21 06:11:29;;;;;;;19.10;9.27;;;;;;;10.75;100.00;100536.09;8372631;28;20411;-55
2023/03/21 06:15:49;;;;;;;21.95;8.25;;;;;;;10.80;100.00;100539.19;8359970;28;20174;-55
2023/03/21 06:19:54;;;;;;;;;;;;;;;10.85;100.00;100542.34;8380103;28;20059;-56
2023/03/21 06:24:00;;;;;;;22.52;8.48;;;;;;;10.91;100.00;100552.59;8381329;28;20014;-55
2023/03/21 06:28:01;;;;;;;25.38;8.75;;;;;;;10.85;100.00;100536.94;8376517;28;20049;-55
2023/03/21 06:32:02;;;;;;;22.33;9.38;;;;;;;10.95;100.00;100548.59;8377241;28;20048;-55
2023/03/21 06:36:03;;;;;;;29.00;8.57;;;;;;;10.93;100.00;100553.31;8382441;28;20090;-55
2023/03/21 06:40:08;;;;;;;24.55;8.93;;;;;;;10.94;100.00;100557.72;8373742;28;20052;-56
2023/03/21 06:44:09;;;;;;;25.23;9.80;;;;;;;10.97;100.00;100553.88;8376243;28;20064;-57
2023/03/21 06:48:18;;;;;;;26.20;10.10;;;;;;;10.89;100.00;100557.28;8382632;28;20040;-56
2023/03/21 06:52:23;;;;;;;19.70;10.57;;;;;;;10.89;100.00;100549.16;8382555;28;20032;-56
2023/03/21 06:56:26;;;;;;;30.13;11.00;;;;;;;10.87;100.00;100551.19;8381309;28;20047;-56
2023/03/21 07:00:27;;;;;;;29.98;10.77;;;;;;;10.83;100.00;100549.72;8386050;28;20032;-56
2023/03/21 07:04:28;;;;;;;32.92;13.15;;;;;;;10.84;100.00;100540.66;8387135;28;20048;-56
2023/03/21 07:08:30;;;;;;;34.90;13.43;;;;;;;10.88;100.00;100552.00;8385781;28;20036;-56
2023/03/21 07:12:34;;;;;;;26.42;13.05;;;;;;;10.90;100.00;100556.31;8387498;28;20044;-56
2023/03/21 07:16:45;;;;;;;28.35;12.35;;;;;;;10.93;100.00;100556.03;8387320;28;20071;-56
2023/03/21 07:20:49;;;;;;;26.17;11.18;;;;;;;10.93;100.00;100550.63;8386496;28;20062;-56
2023/03/21 07:24:50;;;;;;;29.85;12.00;;;;;;;10.83;100.00;100544.31;8383187;28;20033;-56
2023/03/21 07:28:51;;;;;;;28.13;10.40;;;;;;;10.94;100.00;100549.59;8385382;28;20032;-56
2023/03/21 07:32:52;;;;;;;37.17;11.73;;;;;;;11.00;100.00;100551.75;8387338;28;20032;-56
2023/03/21 07:36:53;;;;;;;29.75;10.60;;;;;;;11.05;100.00;100554.88;8387182;28;20411;-56
2023/03/21 07:40:54;;;;;;;26.23;10.80;;;;;;;11.01;100.00;100545.31;8392710;28;20071;-56
2023/03/21 07:44:56;;;;;;;27.20;11.07;;;;;;;11.07;100.00;100546.63;8390176;28;20047;-56
2023/03/21 07:48:57;;;;;;;28.27;11.40;;;;;;;11.04;100.00;100545.03;8392227;28;20044;-55
2023/03/21 07:52:57;;;;;;;28.50;10.70;;;;;;;10.99;100.00;100539.22;8391773;28;20521;-55
2023/03/21 07:56:58;;;;;;;28.23;11.25;;;;;;;10.97;100.00;100545.75;8392474;28;20048;-56
2023/03/21 08:00:59;;;;;;;25.88;11.93;;;;;;;10.94;100.00;100546.91;8392148;28;20044;-56
2023/03/21 08:04:59;;;;;;;22.85;11.00;;;;;;;10.90;100.00;100545.50;8367577;28;20033;-56
2023/03/21 08:09:02;;;;;;;26.27;10.50;;;;;;;10.89;100.00;100538.34;8358684;28;20438;-56
2023/03/21 08:13:03;;;;;;;26.90;9.90;;;;;;;10.85;100.00;100552.28;8362237;28;20061;-56
2023/03/21 08:17:04;;;;;;;32.03;11.35;;;;;;;10.84;100.00;100551.47;8391345;28;20052;-61
2023/03/21 08:21:05;;;;;;;28.92;11.27;;;;;;;10.88;100.00;100557.41;8388368;28;20040;-61
2023/03/21 08:25:07;;;;;;;30.80;11.45;;;;;;;10.91;100.00;100552.59;8368280;28;20037;-61
2023/03/21 08:29:08;;;;;;;21.35;10.43;;;;;;;10.88;100.00;100542.06;8384456;28;20772;-61
2023/03/21 08:33:09;;;;;;;24.75;10.35;;;;;;;10.93;100.00;100539.78;8382632;28;20059;-61
2023/03/21 08:37:10;;;;;;;24.10;10.82;;;;;;;11.01;100.00;100537.22;8382286;28;20410;-61
2023/03/21 08:41:11;;;;;;;23.52;10.73;;;;;;;11.04;100.00;100546.91;8357946;28;20392;-60
2023/03/21 08:45:13;;;;;;;23.50;10.68;;;;;;;11.03;100.00;100537.94;8371855;28;20040;-61
2023/03/21 08:49:14;;;;;;;19.10;9.73;;;;;;;11.09;100.00;100550.03;8390071;28;20093;-60
2023/03/21 08:53:14;;;;;;;22.52;10.07;;;;;;;11.15;100.00;100549.44;8377296;28;20040;-60
2023/03/21 08:57:15;;;;;;;24.65;10.98;;;;;;;11.12;100.00;100539.78;8357072;28;20063;-61
2023/03/21 09:01:15;;;;;;;28.77;10.95;;;;;;;11.18;100.00;100551.88;8373621;28;20036;-61
2023/03/21 09:05:17;;;;;;;26.88;10.82;;;;;;;11.25;100.00;100545.75;8388912;28;20120;-61
2023/03/21 09:09:17;;;;;;;27.88;10.38;;;;;;;11.31;100.00;100545.16;8378292;28;20043;-61
2023/03/21 09:13:18;;;;;;;16.77;8.82;;;;;;;11.36;100.00;100545.59;8385257;28;20495;-61
2023/03/21 09:17:19;;;;;;;26.20;10.65;;;;;;;11.38;100.00;100550.88;8372471;28;20087;-61
2023/03/21 09:21:21;;;;;;;25.65;11.13;;;;;;;11.47;100.00;100540.00;8364598;28;20055;-61
2023/03/21 09:25:23;;;;;;;25.83;10.20;;;;;;;11.55;100.00;100536.56;8384141;28;20097;-61
2023/03/21 09:29:24;;;;;;;27.48;10.95;;;;;;;11.50;100.00;100544.28;8389333;28;20036;-61
2023/03/21 09:33:26;;;;;;;21.40;10.38;;;;;;;11.59;100.00;100536.13;8389324;28;20518;-60
2023/03/21 09:37:27;;;;;;;24.67;9.82;;;;;;;11.62;100.00;100541.28;8389416;28;20037;-60
2023/03/21 09:41:55;;;;;;;19.17;9.82;;;;;;;11.64;100.00;100541.13;8388629;28;20094;-60
2023/03/21 09:46:23;;;;;;;21.10;10.38;;;;;;;11.71;100.00;100544.97;8387131;28;20089;-60
2023/03/21 09:50:35;;;;;;;24.52;10.75;;;;;;;11.64;100.00;100535.72;8387942;28;20115;-60
2023/03/21 09:54:41;;;;;;;28.02;10.15;;;;;;;11.56;100.00;100532.88;8355388;28;20364;-60
2023/03/21 09:58:51;;;;;;;21.35;10.23;;;;;;;11.53;100.00;100527.75;8350590;28;20039;-59
2023/03/21 10:02:58;;;;;;;26.25;11.15;;;;;;;11.54;100.00;100503.25;8377319;28;20059;-59
2023/03/21 10:07:01;;;;;;;23.27;10.50;;;;;;;11.61;100.00;100515.19;8385718;28;20056;-60
2023/03/21 10:11:26;;;;;;;18.88;10.13;;;;;;;11.83;100.00;100498.59;8386780;28;20043;-60
2023/03/21 10:15:27;;;;;;;16.20;9.30;;;;;;;11.84;100.00;100510.28;8385720;28;20028;-60
2023/03/21 10:19:28;;;;;;;22.40;9.07;;;;;;;11.89;100.00;100505.25;8382081;28;20128;-59
2023/03/21 10:23:28;;;;;;;15.77;8.38;;;;;;;12.15;100.00;100492.75;8366485;28;20045;-60
2023/03/21 10:27:30;;;;;;;17.63;8.75;;;;;;;12.23;100.00;100494.69;8386887;28;20048;-57
2023/03/21 10:31:31;;;;;;;25.13;8.55;;;;;;;12.52;100.00;100479.06;8386848;28;20101;-57
2023/03/21 10:35:35;;;;;;;17.15;7.40;;;;;;;12.67;100.00;100482.97;8387649;28;20117;-57
2023/03/21 10:39:39;;;;;;;13.97;7.40;;;;;;;12.72;100.00;100478.75;8387510;28;20040;-57
2023/03/21 10:43:41;;;;;;;13.18;6.38;;;;;;;12.69;100.00;100472.81;8376002;28;20029;-57
2023/03/21 10:47:41;;;;;;;17.90;6.65;;;;;;;12.60;99.17;100460.19;8365743;28;20048;-57
2023/03/21 10:51:45;;;;;;;14.23;7.20;;;;;;;12.55;100.00;100451.66;8365698;28;20040;-57
2023/03/21 10:55:56;;;;;;;15.50;6.93;;;;;;;12.59;100.00;100451.19;8366928;28;20037;-57
2023/03/21 11:00:01;;;;;;;19.05;7.75;;;;;;;12.52;100.00;100441.97;8362432;28;20303;-60
2023/03/21 11:04:13;;;;;;;18.88;8.60;;;;;;;12.66;100.00;100421.59;8394096;28;20044;-60
2023/03/21 11:08:17;;;;;;;18.52;8.20;;;;;;;12.58;100.00;100429.66;8392795;28;20032;-56
2023/03/21 11:12:28;;;;;;;18.88;9.05;;;;;;;12.44;100.00;100422.91;8394071;28;20110;-57
2023/03/21 11:16:34;;;;;;;17.17;9.60;;;;;;;12.50;100.00;100416.03;8393778;28;20068;-57
2023/03/21 11:20:44;;;;;;;17.55;7.57;;;;;;;12.58;100.00;100413.38;8392626;28;20040;-57
2023/03/21 11:24:50;;;;;;;20.65;8.65;;;;;;;12.36;100.00;100421.97;8360009;28;20124;-57
2023/03/21 11:28:51;;;;;;;12.57;6.97;;;;;;;12.35;100.00;100412.16;8360310;28;20029;-57
2023/03/21 11:32:56;;;;;;;17.40;8.70;;;;;;;12.25;100.00;100405.94;8360586;28;20158;-57
2023/03/21 11:37:00;;;;;;;17.05;8.02;;;;;;;12.26;100.00;100418.50;8362296;28;20059;-57
2023/03/21 11:41:01;;;;;;;12.52;7.50;;;;;;;12.18;100.00;100429.25;8378744;28;20044;-57
2023/03/21 11:45:11;;;;;;;15.18;7.43;;;;;;;12.10;100.00;100412.91;8360088;28;20037;-57
2023/03/21 11:49:12;;;;;;;17.83;8.95;;;;;;;12.09;100.00;100417.47;8370577;28;20082;-57
2023/03/21 11:53:40;;;;;;;18.02;8.70;;;;;;;12.11;100.00;100415.47;8390472;28;20067;-57
2023/03/21 11:57:56;;;;;;;17.88;8.45;;;;;;;12.13;100.00;100407.19;8390838;28;20060;-57
2023/03/21 12:02:25;;;;;;;17.20;8.95;;;;;;;12.10;100.00;100405.59;8392266;28;20127;-58
2023/03/21 12:11:25;;;;;;;17.95;8.32;;;;;;;12.20;100.00;100397.44;8410159;27;20860;-58
2023/03/21 12:15:47;;;;;;;18.65;9.55;;;;;;;12.29;100.00;100380.25;8381471;28;20036;-59
2023/03/21 12:20:05;;;;;;;19.67;8.90;;;;;;;12.32;100.00;100372.63;8373232;28;20392;-59
2023/03/21 12:24:17;;;;;;;19.15;10.07;;;;;;;12.43;100.00;100376.97;8378885;28;20102;-59
2023/03/21 12:28:34;;;;;;;18.65;9.40;;;;;;;12.60;100.00;100374.22;8382021;28;20037;-61
2023/03/21 12:37:41;;;;;;;18.98;9.65;;;;;;;12.85;100.00;100375.28;8292572;28;20854;-60
2023/03/21 12:42:04;;;;;;;15.48;8.43;;;;;;;13.11;100.00;100359.88;8270410;28;20060;-60
2023/03/21 12:46:44;;;;;;;13.70;6.07;;;;;;;13.27;100.00;100357.28;8276988;28;20034;-61
2023/03/21 12:50:48;;;;;;;10.27;6.20;;;;;;;13.44;100.00;100359.03;8267836;28;20124;-60
2023/03/21 12:54:55;;;;;;;10.82;6.15;;;;;;;13.63;100.00;100353.34;8300765;28;20059;-61
2023/03/21 12:59:21;;;;;;;13.93;5.05;;;;;;;13.61;97.56;100344.53;8276078;28;20050;-61
2023/03/21 13:03:44;;;;;;;13.23;5.40;;;;;;;13.68;96.60;100346.44;8272410;28;20125;-59
2023/03/21 13:07:50;;;;;;;9.50;5.20;;;;;;;13.83;96.68;100343.91;8274485;28;20515;-56
2023/03/21 13:11:56;;;;;;;10.38;5.32;;;;;;;13.83;95.29;100330.34;8255813;28;20038;-53
2023/03/21 13:16:10;;;;;;;10.35;5.03;;;;;;;13.82;92.96;100321.31;8263918;28;20092;-54
2023/03/21 13:20:36;;;;;;;9.52;5.03;;;;;;;14.00;93.70;100334.78;8280470;28;20533;-53
2023/03/21 13:24:43;;;;;;;6.65;4.55;;;;;;;13.88;91.19;100313.53;8279699;28;20042;-60
2023/03/21 13:28:47;;;;;;;8.93;4.80;;;;;;;14.10;92.90;100296.56;8253355;28;20125;-60
2023/03/21 13:32:50;;;;;;;15.23;5.13;;;;;;;14.30;92.95;100301.53;8232348;28;20043;-59
2023/03/21 13:36:51;;;;;;;12.50;5.25;;;;;;;14.21;93.82;100304.41;8279286;28;20038;-59
2023/03/21 13:41:06;;;;;;;10.07;6.35;;;;;;;14.16;94.98;100291.31;8281993;28;20034;-59
2023/03/21 13:45:10;;;;;;;9.88;5.55;;;;;;;14.08;96.38;100282.28;8278727;28;20101;-60
2023/03/21 13:49:24;;;;;;;11.07;6.30;;;;;;;14.17;95.54;100279.41;8196921;28;20039;-59
2023/03/21 13:53:35;;;;;;;15.00;6.05;;;;;;;14.29;95.85;100280.81;8221427;28;20045;-59
2023/03/21 13:57:37;;;;;;;11.68;5.65;;;;;;;14.55;93.49;100265.13;8228962;28;20046;-59
2023/03/21 14:01:41;;;;;;;11.75;5.88;;;;;;;14.39;92.83;100269.78;8229573;28;20046;-59
2023/03/21 14:05:41;;;;;;;12.70;6.72;;;;;;;14.22;92.93;100268.88;8237594;28;20038;-58
2023/03/21 14:09:47;;;;;;;11.43;5.88;;;;;;;14.29;94.39;100252.75;8247324;28;20038;-59
2023/03/21 14:13:48;;;;;;;13.00;5.95;;;;;;;14.14;93.03;100255.28;8237029;28;20048;-59
2023/03/21 14:17:54;;;;;;;11.50;5.93;;;;;;;14.29;94.26;100248.19;8231278;28;20050;-59
2023/03/21 14:21:55;;;;;;;10.75;6.05;;;;;;;14.41;93.44;100244.09;8234474;28;20513;-60
2023/03/21 14:25:56;;;;;;;9.95;6.30;;;;;;;14.48;93.03;100236.94;8228218;28;20437;-59
2023/03/21 14:29:59;;;;;;;14.05;7.00;;;;;;;14.60;92.77;100234.69;8254706;28;20037;-59
2023/03/21 14:34:01;;;;;;;13.40;5.30;;;;;;;14.65;91.90;100230.47;8289843;28;20045;-59
2023/03/21 14:38:06;;;;;;;7.18;4.53;;;;;;;14.76;93.26;100223.78;8259971;28;20627;-59
2023/03/21 14:42:08;;;;;;;;;;;;;;;14.94;95.17;100229.84;8259345;28;20042;-60
2023/03/21 14:46:11;;;;;;;5.68;3.58;;;;;;;15.53;81.11;100224.66;8260143;28;20056;-55
2023/03/21 14:50:12;;;;;;;10.15;3.63;;;;;;;15.92;76.49;100223.72;8266584;28;20081;-55
2023/03/21 14:54:16;;;;;;;6.43;3.47;;;;;;;16.00;76.33;100220.91;8262073;28;20046;-54
2023/03/21 14:58:18;;;;;;;9.45;4.57;;;;;;;16.17;76.41;100217.03;8258677;28;20074;-54
2023/03/21 15:02:27;;;;;;;5.40;3.25;;;;;;;16.29;75.36;100196.47;8255298;28;20401;-55
2023/03/21 15:06:27;;;;;;;5.85;3.33;;;;;;;16.33;74.45;100197.78;8254583;28;20485;-55
2023/03/21 15:10:30;;;;;;;8.07;4.10;;;;;;;16.34;74.58;100196.75;8281690;28;20412;-55
2023/03/21 15:14:33;;;;;;;8.10;4.13;;;;;;;16.33;75.16;100189.59;8248739;28;20423;-55
2023/03/21 15:18:37;;;;;;;6.35;4.03;;;;;;;16.38;75.03;100182.56;8246129;28;20050;-55
2023/03/21 15:22:40;;;;;;;8.97;4.10;;;;;;;16.21;73.49;100166.53;8255096;28;20556;-55
2023/03/21 15:26:46;;;;;;;8.77;4.13;;;;;;;16.03;73.66;100161.41;8251268;28;20512;-55
2023/03/21 15:30:49;;;;;;;4.70;3.42;;;;;;;16.10;74.29;100169.72;8250946;28;20476;-54
2023/03/21 15:34:53;;;;;;;6.28;3.45;;;;;;;16.44;72.94;100164.63;8255392;28;20038;-55
2023/03/21 15:38:55;;;;;;;6.63;3.80;;;;;;;16.84;71.53;100167.72;8270869;28;20043;-54
2023/03/21 15:43:16;;;;;;;6.50;2.85;;;;;;;16.79;71.08;100163.88;8252673;28;20042;-54
2023/03/21 15:47:37;;;;;;;5.07;3.25;;;;;;;16.74;69.41;100169.09;8252743;28;20505;-54
2023/03/21 15:51:41;;;;;;;4.95;3.38;;;;;;;16.76;71.56;100169.72;8230485;28;20049;-55
2023/03/21 15:55:50;;;;;;;5.35;2.90;;;;;;;16.75;70.57;100163.44;8255280;28;20420;-55
2023/03/21 16:00:11;;;;;;;8.30;3.47;;;;;;;16.64;71.38;100160.31;8255961;28;20037;-54
2023/03/21 16:04:25;;;;;;;6.85;3.08;;;;;;;16.45;72.25;100158.13;8314532;28;20402;-54
2023/03/21 16:08:27;;;;;;;6.32;3.40;;;;;;;16.33;71.35;100149.53;8312313;28;20042;-54
2023/03/21 16:12:28;;;;;;;5.07;3.60;;;;;;;16.19;72.53;100149.53;8282529;28;20121;-56
2023/03/21 16:16:29;;;;;;;4.82;2.38;;;;;;;16.07;73.42;100161.91;8282581;28;20045;-56
2023/03/21 16:20:34;;;;;;;3.95;1.80;;;;;;;16.13;68.82;100155.72;8282238;28;20038;-56
2023/03/21 16:24:34;;;;;;;8.27;1.50;;;;;;;16.15;66.91;100165.41;8282371;28;20037;-60
2023/03/21 16:28:35;;;;;;;2.53;1.27;;;;;;;16.29;67.43;100158.28;8279922;28;20038;-60
2023/03/21 16:32:35;;;;;;;4.28;1.70;;;;;;;16.32;67.90;100153.31;8281683;28;20042;-60
2023/03/21 16:36:39;;;;;;;6.50;2.22;;;;;;;16.17;68.63;100151.59;8281486;28;20076;-60
2023/03/21 16:40:41;;;;;;;7.47;2.10;;;;;;;16.08;68.89;100158.13;8299705;28;20030;-56
2023/03/21 16:44:41;;;;;;;3.30;2.08;;;;;;;15.99;69.89;100170.16;8299116;28;20042;-57
2023/03/21 16:48:44;;;;;;;4.78;1.75;;;;;;;15.98;69.53;100166.56;8295581;28;20164;-57
2023/03/21 16:52:44;;;;;;;8.88;1.92;;;;;;;15.95;69.43;100157.94;8296490;28;20392;-57
2023/03/21 16:56:49;;;;;;;5.78;2.38;;;;;;;15.95;69.74;100163.38;8301806;28;20089;-57
2023/03/21 17:00:49;;;;;;;3.67;1.73;;;;;;;15.87;70.66;100166.16;8310628;28;20140;-58
2023/03/21 17:04:50;;;;;;;4.57;2.30;;;;;;;15.82;70.32;100179.50;8307053;28;20052;-57
2023/03/21 17:08:52;;;;;;;4.18;2.50;;;;;;;15.69;71.26;100188.28;8310497;28;20042;-58
2023/03/21 17:12:53;;;;;;;4.05;2.28;;;;;;;15.64;71.09;100187.97;8304126;28;20041;-58
2023/03/21 17:16:53;;;;;;;3.22;2.22;;;;;;;15.54;72.37;100198.25;8281139;28;20285;-58
2023/03/21 17:20:54;;;;;;;4.75;2.13;;;;;;;15.45;72.35;100200.19;8265889;28;20113;-58
2023/03/21 17:24:55;;;;;;;3.92;2.22;;;;;;;15.39;72.77;100214.53;8257487;28;20636;-60
2023/03/21 17:28:56;;;;;;;7.40;3.10;;;;;;;15.32;72.96;100220.84;8279551;28;20034;-58
2023/03/21 17:32:57;;;;;;;6.93;3.05;;;;;;;15.20;73.99;100222.25;8270208;28;20128;-58
2023/03/21 17:36:58;;;;;;;4.57;2.70;;;;;;;15.09;74.72;100226.22;8274512;28;20034;-57
2023/03/21 17:40:59;;;;;;;5.80;3.38;;;;;;;15.03;74.65;100221.47;8283465;28;20776;-57
2023/03/21 17:45:00;;;;;;;4.45;3.15;;;;;;;15.01;75.18;100218.06;8285724;28;20057;-57
2023/03/21 17:49:00;;;;;;;3.90;2.70;;;;;;;14.95;75.08;100218.78;8287357;28;20211;-57
2023/03/21 17:53:02;;;;;;;7.63;2.70;;;;;;;14.91;74.21;100217.44;8282824;28;20052;-58
2023/03/21 17:57:03;;;;;;;5.18;2.67;;;;;;;14.80;74.51;100201.50;8273073;28;20049;-59
2023/03/21 18:01:04;;;;;;;6.50;2.50;;;;;;;14.82;74.68;100217.66;8270757;28;20065;-59
2023/03/21 18:05:05;;;;;;;6.90;3.45;;;;;;;14.80;74.20;100206.94;8251626;28;20046;-59
2023/03/21 18:09:09;;;;;;;5.30;3.10;;;;;;;14.79;75.13;100207.94;8252137;28;20044;-59
2023/03/21 18:13:10;;;;;;;10.55;3.80;;;;;;;14.77;74.58;100209.16;8255496;28;20316;-59
2023/03/21 18:17:11;;;;;;;7.32;4.10;;;;;;;14.66;75.97;100218.53;8271999;28;20041;-59
2023/03/21 18:21:12;;;;;;;5.40;2.97;;;;;;;14.56;76.92;100223.31;8287586;28;20045;-59
2023/03/21 18:25:14;;;;;;;6.45;3.60;;;;;;;14.52;76.73;100219.22;8287119;28;20033;-59
2023/03/21 18:29:17;;;;;;;9.93;5.68;;;;;;;14.47;77.49;100229.81;8277235;28;20052;-59
2023/03/21 18:33:18;;;;;;;8.05;2.95;;;;;;;14.48;76.46;100220.59;8268513;28;20500;-59
2023/03/21 18:37:18;;;;;;;7.13;3.25;;;;;;;14.54;75.95;100219.91;8286713;28;20424;-59
2023/03/21 18:41:21;;;;;;;3.75;2.70;;;;;;;14.47;77.43;100228.94;8287297;28;20045;-59
2023/03/21 18:45:23;;;;;;;6.18;2.97;;;;;;;14.40;77.30;100228.81;8287187;28;20476;-59
2023/03/21 18:49:24;;;;;;;7.40;2.92;;;;;;;14.40;77.27;100228.81;8286561;28;20458;-59
2023/03/21 18:53:25;;;;;;;4.90;2.88;;;;;;;14.35;77.77;100231.19;8287200;28;20034;-59
2023/03/21 18:57:25;;;;;;;5.93;3.53;;;;;;;14.35;77.36;100228.47;8286506;28;20038;-59
2023/03/21 19:01:26;;;;;;;5.90;3.10;;;;;;;14.32;77.31;100223.38;8286741;28;20042;-59